createdAt,value
2022-09-09T00:00:17.949Z,41.13
2022-09-09T00:03:06.028Z,38.33
2022-09-09T00:05:42.539Z,35.10
2022-09-09T00:08:19.407Z,37.40
2022-09-09T00:10:52.621Z,32.00
2022-09-09T00:13:41.139Z,34.33
2022-09-09T00:16:23.570Z,43.90
2022-09-09T00:19:14.341Z,48.33
2022-09-09T00:22:05.694Z,48.33
2022-09-09T00:25:05.394Z,52.07
2022-09-09T00:27:43.838Z,42.93
2022-09-09T00:30:20.885Z,53.90
2022-09-09T00:32:48.867Z,58.07
2022-09-09T00:35:16.902Z,53.67
2022-09-09T00:37:44.731Z,58.90
2022-09-09T00:40:20.169Z,63.03
2022-09-09T00:42:47.124Z,60.30
2022-09-09T00:45:46.792Z,61.80
2022-09-09T00:48:14.469Z,66.80
2022-09-09T00:51:01.137Z,63.37
2022-09-09T00:54:07.764Z,59.03
2022-09-09T00:56:43.132Z,61.50
2022-09-09T00:59:37.228Z,67.90
2022-09-09T01:02:14.375Z,68.17
2022-09-09T01:04:43.317Z,58.03
2022-09-09T01:07:20.030Z,82.87
2022-09-09T01:09:53.143Z,66.50
2022-09-09T01:12:42.762Z,75.07
2022-09-09T01:15:11.144Z,67.40
2022-09-09T01:18:02.565Z,66.23
2022-09-09T01:21:01.350Z,60.60
2022-09-09T01:23:44.305Z,67.10
2022-09-09T01:26:20.398Z,64.87
2022-09-09T01:28:50.617Z,58.17
2022-09-09T01:31:39.496Z,63.57
2022-09-09T01:34:15.097Z,52.93
2022-09-09T01:36:54.182Z,55.10
2022-09-09T01:39:21.870Z,58.17
2022-09-09T01:41:48.759Z,56.93
2022-09-09T01:44:15.695Z,57.20
2022-09-09T01:46:42.414Z,57.20
2022-09-09T01:49:09.840Z,49.03
2022-09-09T01:51:39.000Z,52.27
2022-09-09T01:54:07.176Z,51.27
2022-09-09T01:56:44.757Z,53.70
2022-09-09T01:59:20.918Z,54.43
2022-09-09T02:02:18.102Z,50.97
2022-09-09T02:04:55.601Z,51.87
2022-09-09T02:07:31.309Z,62.87
2022-09-09T02:10:28.686Z,51.13
2022-09-09T02:13:14.488Z,56.97
2022-09-09T02:15:56.512Z,57.57
2022-09-09T02:18:33.460Z,58.07
2022-09-09T02:21:00.872Z,57.50
2022-09-09T02:23:29.280Z,53.07
2022-09-09T02:25:58.941Z,58.67
2022-09-09T02:28:29.602Z,64.73
2022-09-09T02:30:56.962Z,52.87
2022-09-09T02:33:27.883Z,51.00
2022-09-09T02:35:57.595Z,46.97
2022-09-09T02:38:27.612Z,50.43
2022-09-09T02:40:54.329Z,57.93
2022-09-09T02:43:21.288Z,49.67
2022-09-09T02:46:04.749Z,54.10
2022-09-09T02:48:40.730Z,49.00
2022-09-09T02:51:11.573Z,46.13
2022-09-09T02:53:55.963Z,50.83
2022-09-09T02:56:26.605Z,50.20
2022-09-09T02:58:53.352Z,47.67
2022-09-09T03:01:20.192Z,44.83
2022-09-09T03:03:47.406Z,43.17
2022-09-09T03:06:15.323Z,47.03
2022-09-09T03:08:49.179Z,40.50
2022-09-09T03:11:17.539Z,39.67
2022-09-09T03:13:44.570Z,37.03
2022-09-09T03:16:11.391Z,44.13
2022-09-09T03:18:38.223Z,41.03
2022-09-09T03:21:04.942Z,46.63
2022-09-09T03:23:31.615Z,41.87
2022-09-09T03:25:59.583Z,46.33
2022-09-09T03:28:31.991Z,45.73
2022-09-09T03:31:06.837Z,43.03
2022-09-09T03:33:33.687Z,44.53
2022-09-09T03:36:00.337Z,52.00
2022-09-09T03:38:27.273Z,45.60
2022-09-09T03:40:58.610Z,41.33
2022-09-09T03:43:26.804Z,37.73
2022-09-09T03:45:54.010Z,38.33
2022-09-09T03:48:20.684Z,50.23
2022-09-09T03:50:47.995Z,60.13
2022-09-09T03:53:16.264Z,44.43
2022-09-09T03:55:50.931Z,42.47
2022-09-09T03:58:19.803Z,49.13
2022-09-09T04:00:58.832Z,43.60
2022-09-09T04:03:28.243Z,48.67
2022-09-09T04:05:56.391Z,44.40
2022-09-09T04:08:26.345Z,44.23
2022-09-09T04:10:54.102Z,54.73
2022-09-09T04:13:20.822Z,46.20
2022-09-09T04:15:59.790Z,48.60
2022-09-09T04:18:29.084Z,45.93
2022-09-09T04:20:58.097Z,45.27
2022-09-09T04:23:26.847Z,44.00
2022-09-09T04:25:55.238Z,41.30
2022-09-09T04:28:24.433Z,44.17
2022-09-09T04:30:51.851Z,35.80
2022-09-09T04:33:18.768Z,36.53
2022-09-09T04:35:50.503Z,35.47
2022-09-09T04:38:18.321Z,39.87
2022-09-09T04:40:48.095Z,38.37
2022-09-09T04:43:17.997Z,43.60
2022-09-09T04:45:47.881Z,35.37
2022-09-09T04:48:14.706Z,37.00
2022-09-09T04:50:41.639Z,39.83
2022-09-09T04:53:08.640Z,32.40
2022-09-09T04:55:36.498Z,29.57
2022-09-09T04:58:07.168Z,43.63
2022-09-09T05:00:36.481Z,29.40
2022-09-09T05:03:05.383Z,30.27
2022-09-09T05:05:35.858Z,26.33
2022-09-09T05:08:06.927Z,26.87
2022-09-09T05:10:34.821Z,23.07
2022-09-09T05:13:01.439Z,20.53
2022-09-09T05:15:28.059Z,22.20
2022-09-09T05:18:01.752Z,20.43
2022-09-09T05:20:29.001Z,21.70
2022-09-09T05:22:57.365Z,24.97
2022-09-09T05:25:26.938Z,23.13
2022-09-09T05:27:54.694Z,19.93
2022-09-09T05:30:23.812Z,20.80
2022-09-09T05:32:51.096Z,19.17
2022-09-09T05:35:19.967Z,18.53
2022-09-09T05:37:47.028Z,18.03
2022-09-09T05:40:13.843Z,24.43
2022-09-09T05:42:40.748Z,19.27
2022-09-09T05:45:09.621Z,18.90
2022-09-09T05:47:38.172Z,22.13
2022-09-09T05:50:05.766Z,17.80
2022-09-09T05:52:32.891Z,18.07
2022-09-09T05:55:00.625Z,21.73
2022-09-09T05:57:27.431Z,18.50
2022-09-09T05:59:54.584Z,15.57
2022-09-09T06:02:21.338Z,17.40
2022-09-09T06:04:48.055Z,18.77
2022-09-09T06:07:15.516Z,19.50
2022-09-09T06:09:42.383Z,15.07
2022-09-09T06:12:09.136Z,18.90
2022-09-09T06:14:35.794Z,18.60
2022-09-09T06:17:03.431Z,25.40
2022-09-09T06:19:31.539Z,24.83
2022-09-09T06:21:58.146Z,21.50
2022-09-09T06:24:24.837Z,20.57
2022-09-09T06:26:51.469Z,17.30
2022-09-09T06:29:18.090Z,25.83
2022-09-09T06:31:44.970Z,21.30
2022-09-09T06:34:11.716Z,18.40
2022-09-09T06:36:39.922Z,13.30
2022-09-09T06:39:10.977Z,17.07
2022-09-09T06:41:40.708Z,17.10
2022-09-09T06:44:07.595Z,16.10
2022-09-09T06:46:34.759Z,13.77
2022-09-09T06:49:01.675Z,29.27
2022-09-09T06:51:36.311Z,14.03
2022-09-09T06:54:04.256Z,21.00
2022-09-09T06:56:36.225Z,18.40
2022-09-09T06:59:06.021Z,14.30
2022-09-09T07:01:34.809Z,18.43
2022-09-09T07:04:02.889Z,10.50
2022-09-09T07:06:35.380Z,14.50
2022-09-09T07:09:05.144Z,16.73
2022-09-09T07:11:35.138Z,14.97
2022-09-09T07:14:02.095Z,12.37
2022-09-09T07:16:30.194Z,18.77
2022-09-09T07:18:58.774Z,9.73
2022-09-09T07:21:27.506Z,17.07
2022-09-09T07:23:55.490Z,13.87
2022-09-09T07:26:24.827Z,10.40
2022-09-09T07:28:51.656Z,14.83
2022-09-09T07:31:25.037Z,9.77
2022-09-09T07:33:52.005Z,14.73
2022-09-09T07:36:24.807Z,10.23
2022-09-09T07:39:00.389Z,9.70
2022-09-09T07:41:41.921Z,11.30
2022-09-09T07:44:12.308Z,15.53
2022-09-09T07:46:42.821Z,13.47
2022-09-09T07:49:10.904Z,9.90
2022-09-09T07:51:40.337Z,12.33
2022-09-09T07:54:10.259Z,17.40
2022-09-09T07:56:40.245Z,17.47
2022-09-09T07:59:08.109Z,17.40
2022-09-09T08:01:40.446Z,13.73
2022-09-09T08:04:16.205Z,8.10
2022-09-09T08:06:45.279Z,12.30
2022-09-09T08:09:12.152Z,12.17
2022-09-09T08:11:40.562Z,8.47
2022-09-09T08:14:09.131Z,7.70
2022-09-09T08:16:38.530Z,12.00
2022-09-09T08:19:07.422Z,13.90
2022-09-09T08:21:35.355Z,17.10
2022-09-09T08:24:02.842Z,21.63
2022-09-09T08:26:38.268Z,15.30
2022-09-09T08:29:07.618Z,18.50
2022-09-09T08:31:40.918Z,14.37
2022-09-09T08:34:08.297Z,11.93
2022-09-09T08:36:41.590Z,7.10
2022-09-09T08:39:09.671Z,6.33
2022-09-09T08:41:56.378Z,18.00
2022-09-09T08:44:34.933Z,9.97
2022-09-09T08:47:19.999Z,13.77
2022-09-09T08:49:52.977Z,13.10
2022-09-09T08:52:31.933Z,11.43
2022-09-09T08:55:38.115Z,9.17
2022-09-09T08:58:12.757Z,8.77
2022-09-09T09:01:01.459Z,14.53
2022-09-09T09:03:55.218Z,20.30
2022-09-09T09:06:49.315Z,10.63
2022-09-09T09:09:23.479Z,12.10
2022-09-09T09:11:52.589Z,11.07
2022-09-09T09:14:25.523Z,17.47
2022-09-09T09:16:58.527Z,14.47
2022-09-09T09:19:27.254Z,8.50
2022-09-09T09:22:16.474Z,9.70
2022-09-09T09:25:02.509Z,9.00
2022-09-09T09:27:50.659Z,11.40
2022-09-09T09:30:26.782Z,8.87
2022-09-09T09:33:21.870Z,5.77
2022-09-09T09:35:51.298Z,10.07
2022-09-09T09:41:07.894Z,10.43
2022-09-09T09:43:36.769Z,5.47
2022-09-09T09:46:19.252Z,10.37
2022-09-09T09:48:47.327Z,29.67
2022-09-09T09:51:17.149Z,33.30
2022-09-09T09:53:44.585Z,5.37
2022-09-09T09:56:14.205Z,6.70
2022-09-09T09:58:59.675Z,5.30
2022-09-09T10:01:34.184Z,5.70
2022-09-09T10:04:15.281Z,10.70
2022-09-09T10:06:42.075Z,23.90
2022-09-09T10:09:33.668Z,29.90
2022-09-09T10:12:13.700Z,26.07
2022-09-09T10:15:07.316Z,32.87
2022-09-09T10:17:42.254Z,51.93
2022-09-09T10:20:11.890Z,13.40
2022-09-09T10:22:45.043Z,8.90
2022-09-09T10:25:52.239Z,5.73
2022-09-09T10:28:48.389Z,9.63
2022-09-09T10:31:33.961Z,4.97
2022-09-09T10:34:21.561Z,6.73
2022-09-09T10:36:51.332Z,12.77
2022-09-09T10:39:42.236Z,9.10
2022-09-09T10:42:17.727Z,5.33
2022-09-09T10:45:00.346Z,3.30
2022-09-09T10:48:05.351Z,2.43
2022-09-09T10:51:03.909Z,4.90
2022-09-09T10:53:34.403Z,3.80
2022-09-09T10:56:13.133Z,12.73
2022-09-09T10:58:48.827Z,5.27
2022-09-09T11:01:26.567Z,4.90
2022-09-09T11:03:59.343Z,3.60
2022-09-09T11:06:34.098Z,14.43
2022-09-09T11:09:03.233Z,12.50
2022-09-09T11:11:43.583Z,5.23
2022-09-09T11:14:20.856Z,2.10
2022-09-09T11:16:59.456Z,8.17
2022-09-09T11:19:43.751Z,3.60
2022-09-09T11:22:35.264Z,6.37
2022-09-09T11:25:07.474Z,15.37
2022-09-09T11:27:45.887Z,6.67
2022-09-09T11:30:37.641Z,7.80
2022-09-09T11:33:27.757Z,6.47
2022-09-09T11:36:12.987Z,3.10
2022-09-09T11:38:52.829Z,6.73
2022-09-09T11:41:21.983Z,2.40
2022-09-09T11:43:54.775Z,10.03
2022-09-09T11:46:34.700Z,8.13
2022-09-09T11:49:04.229Z,3.23
2022-09-09T11:51:34.566Z,51.80
2022-09-09T11:54:03.916Z,3.73
2022-09-09T11:56:42.654Z,7.87
2022-09-09T11:59:25.555Z,10.70
2022-09-09T12:02:03.764Z,2.23
2022-09-09T12:04:45.826Z,8.50
2022-09-09T12:07:12.496Z,2.83
2022-09-09T12:09:51.137Z,25.63
2022-09-09T12:12:25.591Z,8.33
2022-09-09T12:15:00.379Z,2.20
2022-09-09T12:17:30.949Z,4.97
2022-09-09T12:20:18.285Z,1.70
2022-09-09T12:23:09.979Z,11.27
2022-09-09T12:26:01.959Z,9.43
2022-09-09T12:28:41.746Z,4.07
2022-09-09T12:31:42.671Z,5.17
2022-09-09T12:34:43.697Z,4.23
2022-09-09T12:37:20.302Z,4.87
2022-09-09T12:39:54.491Z,7.67
2022-09-09T12:42:23.064Z,4.33
2022-09-09T12:44:58.820Z,2.90
2022-09-09T12:47:30.247Z,3.30
2022-09-09T12:49:58.217Z,4.07
2022-09-09T12:52:39.836Z,6.10
2022-09-09T12:55:09.361Z,5.60
2022-09-09T12:57:40.871Z,7.27
2022-09-09T13:00:19.466Z,3.23
2022-09-09T13:02:53.629Z,3.00
2022-09-09T13:05:26.202Z,3.30
2022-09-09T13:08:01.884Z,3.43
2022-09-09T13:10:36.638Z,9.47
2022-09-09T13:13:19.075Z,3.30
2022-09-09T13:15:57.851Z,6.67
2022-09-09T13:18:34.304Z,4.10
2022-09-09T13:21:01.687Z,3.13
2022-09-09T13:23:36.155Z,6.30
2022-09-09T13:26:08.654Z,6.47
2022-09-09T13:28:36.091Z,4.83
2022-09-09T13:31:19.959Z,6.70
2022-09-09T13:33:46.682Z,3.07
2022-09-09T13:36:15.380Z,3.27
2022-09-09T13:38:56.040Z,5.93
2022-09-09T13:41:25.078Z,8.30
2022-09-09T13:43:53.047Z,13.43
2022-09-09T13:46:38.480Z,7.10
2022-09-09T13:49:11.114Z,11.93
2022-09-09T13:51:39.041Z,5.27
2022-09-09T13:54:07.535Z,7.77
2022-09-09T13:56:35.469Z,8.63
2022-09-09T13:59:03.150Z,3.83
2022-09-09T14:01:30.256Z,7.70
2022-09-09T14:03:57.650Z,7.40
2022-09-09T14:06:25.197Z,6.77
2022-09-09T14:08:52.721Z,5.17
2022-09-09T14:11:20.197Z,10.03
2022-09-09T14:13:46.810Z,9.30
2022-09-09T14:16:13.618Z,8.97
2022-09-09T14:18:40.447Z,7.93
2022-09-09T14:21:07.200Z,8.33
2022-09-09T14:23:33.907Z,10.80
2022-09-09T14:26:00.485Z,12.97
2022-09-09T14:28:53.847Z,6.83
2022-09-09T14:31:14.604Z,14.00
2022-09-09T14:33:41.874Z,22.27
2022-09-09T14:36:08.547Z,7.67
2022-09-09T14:38:41.179Z,5.37
2022-09-09T14:41:10.151Z,26.83
2022-09-09T14:43:38.353Z,10.97
2022-09-09T14:46:10.182Z,3.80
2022-09-09T14:48:37.647Z,3.53
2022-09-09T14:51:20.434Z,2.53
2022-09-09T14:53:47.731Z,7.80
2022-09-09T14:56:17.220Z,23.63
2022-09-09T14:58:44.781Z,6.60
2022-09-09T15:01:13.875Z,5.00
2022-09-09T15:03:42.247Z,7.00
2022-09-09T15:06:13.090Z,10.97
2022-09-09T15:08:42.893Z,7.63
2022-09-09T15:11:11.265Z,14.33
2022-09-09T15:13:40.207Z,10.00
2022-09-09T15:16:15.426Z,11.33
2022-09-09T15:18:43.857Z,6.40
2022-09-09T15:21:15.169Z,7.50
2022-09-09T15:23:41.947Z,8.30
2022-09-09T15:26:09.469Z,6.27
2022-09-09T15:28:38.942Z,5.17
2022-09-09T15:31:08.274Z,5.60
2022-09-09T15:33:36.620Z,15.17
2022-09-09T15:36:14.520Z,5.93
2022-09-09T15:38:41.701Z,5.27
2022-09-09T15:41:08.474Z,6.30
2022-09-09T15:43:35.169Z,9.50
2022-09-09T15:46:25.255Z,5.80
2022-09-09T15:48:53.906Z,3.30
2022-09-09T15:51:41.806Z,9.73
2022-09-09T15:54:11.162Z,7.50
2022-09-09T15:56:37.842Z,4.13
2022-09-09T15:59:04.709Z,4.60
2022-09-09T16:01:32.917Z,8.80
2022-09-09T16:04:01.013Z,6.57
2022-09-09T16:06:31.143Z,7.00
2022-09-09T16:09:01.876Z,5.37
2022-09-09T16:11:31.991Z,6.80
2022-09-09T16:13:59.460Z,3.73
2022-09-09T16:16:28.597Z,5.63
2022-09-09T16:18:57.767Z,5.97
2022-09-09T16:21:30.195Z,5.83
2022-09-09T16:24:00.350Z,4.83
2022-09-09T16:26:28.367Z,3.40
2022-09-09T16:29:01.448Z,5.43
2022-09-09T16:31:29.618Z,5.10
2022-09-09T16:33:56.754Z,4.17
2022-09-09T16:36:25.710Z,4.63
2022-09-09T16:39:00.208Z,3.33
2022-09-09T16:41:28.774Z,5.20
2022-09-09T16:44:03.946Z,7.90
2022-09-09T16:46:32.504Z,5.90
2022-09-09T16:49:00.493Z,7.47
2022-09-09T16:51:30.023Z,2.37
2022-09-09T16:53:59.644Z,3.47
2022-09-09T16:56:29.042Z,4.40
2022-09-09T16:58:58.122Z,4.50
2022-09-09T17:01:26.812Z,3.60
2022-09-09T17:04:01.135Z,5.77
2022-09-09T17:06:36.022Z,5.33
2022-09-09T17:09:06.509Z,6.63
2022-09-09T17:11:33.379Z,4.10
2022-09-09T17:14:01.123Z,5.43
2022-09-09T17:16:30.490Z,5.33
2022-09-09T17:18:59.623Z,5.97
2022-09-09T17:21:27.459Z,4.00
2022-09-09T17:23:55.433Z,18.90
2022-09-09T17:26:24.532Z,4.40
2022-09-09T17:28:52.581Z,8.37
2022-09-09T17:31:20.843Z,3.23
2022-09-09T17:33:50.787Z,5.17
2022-09-09T17:36:26.603Z,4.27
2022-09-09T17:38:53.870Z,4.27
2022-09-09T17:41:27.195Z,5.90
2022-09-09T17:43:55.334Z,38.50
2022-09-09T17:46:29.838Z,45.73
2022-09-09T17:48:59.324Z,18.53
2022-09-09T17:51:30.389Z,6.63
2022-09-09T17:54:00.017Z,8.40
2022-09-09T17:56:29.225Z,5.53
2022-09-09T17:58:55.921Z,6.60
2022-09-09T18:01:25.408Z,11.17
2022-09-09T18:03:52.287Z,8.90
2022-09-09T18:06:21.759Z,6.17
2022-09-09T18:08:56.834Z,8.73
2022-09-09T18:11:26.228Z,9.40
2022-09-09T18:13:55.163Z,7.70
2022-09-09T18:16:23.024Z,8.90
2022-09-09T18:18:50.558Z,8.87
2022-09-09T18:21:18.795Z,9.53
2022-09-09T18:23:51.983Z,13.40
2022-09-09T18:26:21.433Z,7.43
2022-09-09T18:28:50.456Z,7.77
2022-09-09T18:31:19.393Z,6.40
2022-09-09T18:33:49.117Z,5.97
2022-09-09T18:36:24.800Z,8.83
2022-09-09T18:38:52.347Z,9.13
2022-09-09T18:41:24.733Z,9.50
2022-09-09T18:43:55.099Z,13.20
2022-09-09T18:46:23.510Z,7.63
2022-09-09T18:48:50.881Z,12.13
2022-09-09T18:51:23.178Z,5.40
2022-09-09T18:53:55.399Z,9.87
2022-09-09T18:56:22.925Z,9.70
2022-09-09T18:58:58.292Z,8.90
2022-09-09T19:01:25.798Z,16.43
2022-09-09T19:03:52.772Z,8.27
2022-09-09T19:06:23.835Z,9.00
2022-09-09T19:08:54.728Z,10.97
2022-09-09T19:11:24.205Z,15.83
2022-09-09T19:14:12.677Z,14.83
2022-09-09T19:16:40.538Z,12.60
2022-09-09T19:19:12.452Z,9.80
2022-09-09T19:21:40.364Z,12.00
2022-09-09T19:24:15.457Z,25.77
2022-09-09T19:26:48.146Z,9.23
2022-09-09T19:29:19.270Z,12.67
2022-09-09T19:32:09.462Z,18.60
2022-09-09T19:34:34.102Z,9.10
2022-09-09T19:37:00.687Z,11.53
2022-09-09T19:39:27.433Z,8.40
2022-09-09T19:41:54.037Z,12.87
2022-09-09T19:44:20.632Z,7.50
2022-09-09T19:46:47.266Z,13.70
2022-09-09T19:49:15.467Z,19.10
2022-09-09T19:51:42.289Z,11.20
2022-09-09T19:54:11.005Z,14.70
2022-09-09T19:56:39.578Z,8.73
2022-09-09T19:59:07.369Z,16.40
2022-09-09T20:01:40.230Z,18.10
2022-09-09T20:04:08.368Z,25.93
2022-09-09T20:06:40.305Z,28.93
2022-09-09T20:09:10.520Z,10.23
2022-09-09T20:11:38.368Z,10.37
2022-09-09T20:14:05.112Z,7.50
2022-09-09T20:16:33.308Z,10.70
2022-09-09T20:19:02.347Z,13.37
2022-09-09T20:21:38.213Z,19.10
2022-09-09T20:24:08.540Z,19.50
2022-09-09T20:26:37.541Z,46.27
2022-09-09T20:29:07.769Z,30.60
2022-09-09T20:31:36.994Z,13.03
2022-09-09T20:34:04.404Z,12.93
2022-09-09T20:36:33.710Z,11.67
2022-09-09T20:39:07.209Z,12.40
2022-09-09T20:41:36.096Z,17.50
2022-09-09T20:44:06.010Z,14.03
2022-09-09T20:46:37.959Z,12.77
2022-09-09T20:49:06.823Z,11.17
2022-09-09T20:51:35.082Z,15.20
2022-09-09T20:54:08.518Z,8.80
2022-09-09T20:56:40.749Z,8.30
2022-09-09T20:59:12.662Z,8.60
2022-09-09T21:01:40.262Z,10.13
2022-09-09T21:04:08.151Z,8.90
2022-09-09T21:06:34.741Z,8.40
2022-09-09T21:09:01.675Z,6.83
2022-09-09T21:11:28.293Z,6.37
2022-09-09T21:13:56.414Z,9.50
2022-09-09T21:16:23.117Z,9.60
2022-09-09T21:18:50.062Z,10.20
2022-09-09T21:21:21.151Z,16.03
2022-09-09T21:23:49.088Z,10.60
2022-09-09T21:26:17.750Z,5.40
2022-09-09T21:28:44.499Z,7.20
2022-09-09T21:31:16.101Z,9.47
2022-09-09T21:33:43.011Z,18.00
2022-09-09T21:36:12.111Z,6.50
2022-09-09T21:38:43.632Z,8.93
2022-09-09T21:41:14.901Z,12.77
2022-09-09T21:43:42.835Z,12.13
2022-09-09T21:46:16.287Z,14.90
2022-09-09T21:48:43.409Z,6.67
2022-09-09T21:51:12.748Z,7.63
2022-09-09T21:53:40.040Z,8.23
2022-09-09T21:56:10.544Z,6.90
2022-09-09T21:58:37.593Z,7.93
2022-09-09T22:01:16.772Z,3.93
2022-09-09T22:03:44.424Z,11.87
2022-09-09T22:06:14.644Z,5.73
2022-09-09T22:08:41.805Z,4.20
2022-09-09T22:11:11.512Z,4.77
2022-09-09T22:13:38.463Z,6.90
2022-09-09T22:16:07.693Z,2.70
2022-09-09T22:18:34.836Z,5.00
2022-09-09T22:21:15.633Z,2.17
2022-09-09T22:23:42.544Z,4.63
2022-09-09T22:26:09.674Z,5.97
2022-09-09T22:28:38.388Z,9.40
2022-09-09T22:31:06.036Z,4.70
2022-09-09T22:33:33.346Z,4.83
2022-09-09T22:36:00.228Z,6.23
2022-09-09T22:38:26.987Z,6.07
2022-09-09T22:40:54.609Z,6.43
2022-09-09T22:43:22.327Z,12.50
2022-09-09T22:45:50.844Z,7.60
2022-09-09T22:48:17.847Z,3.03
2022-09-09T22:50:45.023Z,5.63
2022-09-09T22:53:14.958Z,5.77
2022-09-09T22:55:41.963Z,11.90
2022-09-09T22:58:09.725Z,9.63
2022-09-09T23:00:40.782Z,10.27
2022-09-09T23:03:07.865Z,7.37
2022-09-09T23:05:35.216Z,7.00
2022-09-09T23:08:01.981Z,6.77
2022-09-09T23:10:32.076Z,14.20
2022-09-09T23:12:58.825Z,7.40
2022-09-09T23:15:25.757Z,5.90
2022-09-09T23:17:52.798Z,8.57
2022-09-09T23:20:19.536Z,11.37
2022-09-09T23:22:46.630Z,5.23
2022-09-09T23:25:13.314Z,5.50
2022-09-09T23:27:39.932Z,7.83
2022-09-09T23:30:07.288Z,7.37
2022-09-09T23:32:34.079Z,7.70
2022-09-09T23:35:00.767Z,4.10
2022-09-09T23:37:27.377Z,7.60
2022-09-09T23:39:54.747Z,6.20
2022-09-09T23:42:21.389Z,12.13
2022-09-09T23:44:48.330Z,9.03
2022-09-09T23:47:14.933Z,6.37
2022-09-09T23:49:41.540Z,8.03
2022-09-09T23:52:08.769Z,7.67
2022-09-09T23:54:36.176Z,8.60
2022-09-09T23:57:03.317Z,11.90
2022-09-09T23:59:31.404Z,4.87
